sensor_id;sensor_type;location;lat;lon;timestamp;pressure;altitude;pressure_sealevel;temperature;humidity
41515;BME280;27247;48.020;16.720;2024-01-15T00:01:29;98561.69;;;-3.93;89.39
41515;BME280;27247;48.020;16.720;2024-01-15T00:05:40;98570.84;;;-3.87;89.26
41515;BME280;27247;48.020;16.720;2024-01-15T00:09:50;98562.44;;;-3.79;89.93
41515;BME280;27247;48.020;16.720;2024-01-15T00:14:00;98572.63;;;-3.65;90.53
41515;BME280;27247;48.020;16.720;2024-01-15T00:18:11;98555.78;;;-3.61;90.84
41515;BME280;27247;48.020;16.720;2024-01-15T00:22:21;98551.41;;;-3.49;90.41
41515;BME280;27247;48.020;16.720;2024-01-15T00:26:31;98551.53;;;-3.51;90.17
41515;BME280;27247;48.020;16.720;2024-01-15T00:30:42;98536.81;;;-3.41;89.22
41515;BME280;27247;48.020;16.720;2024-01-15T00:34:52;98535.38;;;-3.34;89.71
41515;BME280;27247;48.020;16.720;2024-01-15T00:39:02;98533.47;;;-3.32;90.80
41515;BME280;27247;48.020;16.720;2024-01-15T00:43:15;98538.13;;;-3.69;88.27
41515;BME280;27247;48.020;16.720;2024-01-15T00:47:28;98528.25;;;-3.76;87.08
41515;BME280;27247;48.020;16.720;2024-01-15T00:51:39;98526.97;;;-3.82;87.79
41515;BME280;27247;48.020;16.720;2024-01-15T00:55:49;98533.84;;;-3.81;87.97
41515;BME280;27247;48.020;16.720;2024-01-15T01:00:00;98520.09;;;-3.72;88.28
41515;BME280;27247;48.020;16.720;2024-01-15T01:04:10;98518.41;;;-3.62;89.41
41515;BME280;27247;48.020;16.720;2024-01-15T01:08:20;98518.88;;;-3.57;89.40
41515;BME280;27247;48.020;16.720;2024-01-15T01:12:31;98526.00;;;-3.47;89.35
41515;BME280;27247;48.020;16.720;2024-01-15T01:16:41;98521.25;;;-3.42;89.21
41515;BME280;27247;48.020;16.720;2024-01-15T01:20:51;98520.88;;;-3.27;88.92
41515;BME280;27247;48.020;16.720;2024-01-15T01:25:02;98516.84;;;-3.31;89.13
41515;BME280;27247;48.020;16.720;2024-01-15T01:29:12;98522.44;;;-3.35;89.26
41515;BME280;27247;48.020;16.720;2024-01-15T01:33:23;98488.72;;;-3.38;89.26
41515;BME280;27247;48.020;16.720;2024-01-15T01:37:33;98491.47;;;-3.40;90.04
41515;BME280;27247;48.020;16.720;2024-01-15T01:41:45;98497.09;;;-3.12;89.70
41515;BME280;27247;48.020;16.720;2024-01-15T01:45:56;98495.56;;;-3.15;90.27
41515;BME280;27247;48.020;16.720;2024-01-15T01:50:08;98488.44;;;-3.02;89.28
41515;BME280;27247;48.020;16.720;2024-01-15T01:54:20;98499.50;;;-3.09;89.84
41515;BME280;27247;48.020;16.720;2024-01-15T01:58:32;98497.09;;;-3.12;89.87
41515;BME280;27247;48.020;16.720;2024-01-15T02:02:43;98491.91;;;-3.35;90.07
41515;BME280;27247;48.020;16.720;2024-01-15T02:06:53;98486.22;;;-3.40;90.28
41515;BME280;27247;48.020;16.720;2024-01-15T02:11:04;98484.31;;;-3.27;90.58
41515;BME280;27247;48.020;16.720;2024-01-15T02:15:14;98471.22;;;-3.15;90.62
41515;BME280;27247;48.020;16.720;2024-01-15T02:19:25;98463.06;;;-3.33;92.51
41515;BME280;27247;48.020;16.720;2024-01-15T02:23:35;98442.72;;;-3.18;92.79
41515;BME280;27247;48.020;16.720;2024-01-15T02:27:46;98453.50;;;-3.01;91.33
41515;BME280;27247;48.020;16.720;2024-01-15T02:31:56;98440.38;;;-3.10;90.09
41515;BME280;27247;48.020;16.720;2024-01-15T02:36:06;98436.09;;;-3.23;90.75
41515;BME280;27247;48.020;16.720;2024-01-15T02:40:17;98443.72;;;-3.31;91.76
41515;BME280;27247;48.020;16.720;2024-01-15T02:44:27;98438.25;;;-3.28;92.60
41515;BME280;27247;48.020;16.720;2024-01-15T02:48:37;98432.44;;;-3.31;93.69
41515;BME280;27247;48.020;16.720;2024-01-15T02:52:48;98425.06;;;-3.26;93.30
41515;BME280;27247;48.020;16.720;2024-01-15T02:56:58;98438.50;;;-3.31;93.40
41515;BME280;27247;48.020;16.720;2024-01-15T03:01:08;98442.91;;;-3.42;93.66
41515;BME280;27247;48.020;16.720;2024-01-15T03:05:19;98447.34;;;-3.54;95.23
41515;BME280;27247;48.020;16.720;2024-01-15T03:09:30;98446.59;;;-3.34;96.25
41515;BME280;27247;48.020;16.720;2024-01-15T03:13:40;98436.81;;;-3.21;95.79
41515;BME280;27247;48.020;16.720;2024-01-15T03:17:50;98433.56;;;-3.13;96.72
41515;BME280;27247;48.020;16.720;2024-01-15T03:22:01;98431.28;;;-2.95;96.69
41515;BME280;27247;48.020;16.720;2024-01-15T03:26:12;98418.34;;;-2.76;95.29
41515;BME280;27247;48.020;16.720;2024-01-15T03:30:23;98422.13;;;-2.69;93.75
41515;BME280;27247;48.020;16.720;2024-01-15T03:34:33;98436.16;;;-2.70;92.72
41515;BME280;27247;48.020;16.720;2024-01-15T03:38:43;98448.06;;;-2.77;92.53
41515;BME280;27247;48.020;16.720;2024-01-15T03:42:54;98440.59;;;-2.81;92.81
41515;BME280;27247;48.020;16.720;2024-01-15T03:47:04;98434.88;;;-2.75;93.25
41515;BME280;27247;48.020;16.720;2024-01-15T03:51:17;98421.34;;;-2.39;90.22
41515;BME280;27247;48.020;16.720;2024-01-15T03:55:28;98400.22;;;-1.96;87.41
41515;BME280;27247;48.020;16.720;2024-01-15T03:59:40;98375.41;;;-1.42;84.14
41515;BME280;27247;48.020;16.720;2024-01-15T04:03:51;98379.56;;;-0.91;81.83
41515;BME280;27247;48.020;16.720;2024-01-15T04:08:01;98369.81;;;-0.42;79.44
41515;BME280;27247;48.020;16.720;2024-01-15T04:12:12;98356.16;;;-0.09;76.82
41515;BME280;27247;48.020;16.720;2024-01-15T04:16:22;98379.69;;;0.20;75.17
41515;BME280;27247;48.020;16.720;2024-01-15T04:20:32;98348.03;;;0.22;75.18
41515;BME280;27247;48.020;16.720;2024-01-15T04:24:43;98341.13;;;0.21;75.23
41515;BME280;27247;48.020;16.720;2024-01-15T04:28:53;98345.63;;;0.28;75.21
41515;BME280;27247;48.020;16.720;2024-01-15T04:33:03;98343.53;;;0.32;75.41
41515;BME280;27247;48.020;16.720;2024-01-15T04:37:14;98354.13;;;0.40;75.63
41515;BME280;27247;48.020;16.720;2024-01-15T04:41:24;98350.53;;;0.41;75.32
41515;BME280;27247;48.020;16.720;2024-01-15T04:45:35;98334.94;;;0.57;75.32
41515;BME280;27247;48.020;16.720;2024-01-15T04:49:45;98349.56;;;0.60;75.43
41515;BME280;27247;48.020;16.720;2024-01-15T04:53:55;98349.34;;;0.71;74.95
41515;BME280;27247;48.020;16.720;2024-01-15T04:58:05;98331.94;;;1.06;73.20
41515;BME280;27247;48.020;16.720;2024-01-15T05:02:16;98318.31;;;1.36;70.95
41515;BME280;27247;48.020;16.720;2024-01-15T05:06:26;98338.28;;;1.47;70.24
41515;BME280;27247;48.020;16.720;2024-01-15T05:10:37;98351.00;;;1.51;69.08
41515;BME280;27247;48.020;16.720;2024-01-15T05:14:47;98345.50;;;1.71;68.14
41515;BME280;27247;48.020;16.720;2024-01-15T05:18:57;98329.00;;;1.95;66.14
41515;BME280;27247;48.020;16.720;2024-01-15T05:23:08;98347.47;;;2.03;66.42
41515;BME280;27247;48.020;16.720;2024-01-15T05:27:19;98370.00;;;1.97;65.84
41515;BME280;27247;48.020;16.720;2024-01-15T05:31:31;98371.66;;;1.98;65.99
41515;BME280;27247;48.020;16.720;2024-01-15T05:35:41;98365.38;;;1.91;66.84
41515;BME280;27247;48.020;16.720;2024-01-15T05:39:52;98388.63;;;1.70;68.35
41515;BME280;27247;48.020;16.720;2024-01-15T05:44:02;98386.44;;;1.65;68.99
41515;BME280;27247;48.020;16.720;2024-01-15T05:48:12;98388.81;;;1.50;69.86
41515;BME280;27247;48.020;16.720;2024-01-15T05:52:23;98383.50;;;1.42;70.30
41515;BME280;27247;48.020;16.720;2024-01-15T05:56:33;98396.53;;;1.26;70.80
41515;BME280;27247;48.020;16.720;2024-01-15T06:00:44;98396.78;;;1.15;71.75
41515;BME280;27247;48.020;16.720;2024-01-15T06:04:55;98411.66;;;1.06;72.42
41515;BME280;27247;48.020;16.720;2024-01-15T06:09:06;98432.03;;;1.04;71.56
41515;BME280;27247;48.020;16.720;2024-01-15T06:13:16;98404.34;;;1.00;72.03
41515;BME280;27247;48.020;16.720;2024-01-15T06:17:26;98441.38;;;0.89;73.04
41515;BME280;27247;48.020;16.720;2024-01-15T06:21:37;98443.63;;;0.84;72.78
41515;BME280;27247;48.020;16.720;2024-01-15T06:25:47;98442.41;;;0.78;72.68
41515;BME280;27247;48.020;16.720;2024-01-15T06:29:57;98432.19;;;0.75;73.21
41515;BME280;27247;48.020;16.720;2024-01-15T06:34:07;98438.88;;;0.70;73.23
41515;BME280;27247;48.020;16.720;2024-01-15T06:38:18;98425.50;;;0.63;73.73
41515;BME280;27247;48.020;16.720;2024-01-15T06:42:28;98426.84;;;0.67;73.54
41515;BME280;27247;48.020;16.720;2024-01-15T06:46:42;98424.06;;;0.69;73.01
41515;BME280;27247;48.020;16.720;2024-01-15T06:50:53;98426.09;;;0.75;73.20
41515;BME280;27247;48.020;16.720;2024-01-15T06:55:03;98444.13;;;0.70;73.11
41515;BME280;27247;48.020;16.720;2024-01-15T06:59:14;98437.22;;;0.69;73.51
41515;BME280;27247;48.020;16.720;2024-01-15T07:03:24;98440.28;;;0.64;73.18
41515;BME280;27247;48.020;16.720;2024-01-15T07:07:34;98462.44;;;0.61;73.73
41515;BME280;27247;48.020;16.720;2024-01-15T07:11:46;98467.84;;;0.60;73.50
41515;BME280;27247;48.020;16.720;2024-01-15T07:15:59;98484.69;;;0.67;73.27
41515;BME280;27247;48.020;16.720;2024-01-15T07:20:09;98486.88;;;0.72;73.20
41515;BME280;27247;48.020;16.720;2024-01-15T07:24:20;98504.44;;;0.71;73.42
41515;BME280;27247;48.020;16.720;2024-01-15T07:28:30;98502.06;;;0.78;73.10
41515;BME280;27247;48.020;16.720;2024-01-15T07:32:41;98508.81;;;0.80;72.79
41515;BME280;27247;48.020;16.720;2024-01-15T07:36:52;98502.16;;;0.86;72.68
41515;BME280;27247;48.020;16.720;2024-01-15T07:41:02;98496.97;;;0.94;72.10
41515;BME280;27247;48.020;16.720;2024-01-15T07:45:13;98498.88;;;1.02;72.08
41515;BME280;27247;48.020;16.720;2024-01-15T07:49:24;98488.59;;;1.08;71.77
41515;BME280;27247;48.020;16.720;2024-01-15T07:53:34;98485.56;;;1.03;71.74
41515;BME280;27247;48.020;16.720;2024-01-15T07:57:44;98479.16;;;0.88;71.49
41515;BME280;27247;48.020;16.720;2024-01-15T08:01:58;98496.88;;;0.86;71.78
41515;BME280;27247;48.020;16.720;2024-01-15T08:06:09;98485.41;;;0.87;71.58
41515;BME280;27247;48.020;16.720;2024-01-15T08:10:19;98502.78;;;0.98;71.15
41515;BME280;27247;48.020;16.720;2024-01-15T08:14:30;98521.28;;;1.06;71.22
41515;BME280;27247;48.020;16.720;2024-01-15T08:18:41;98502.97;;;1.14;70.35
41515;BME280;27247;48.020;16.720;2024-01-15T08:22:52;98496.66;;;1.24;69.25
41515;BME280;27247;48.020;16.720;2024-01-15T08:27:03;98485.75;;;1.37;69.50
41515;BME280;27247;48.020;16.720;2024-01-15T08:31:15;98490.41;;;1.43;69.63
41515;BME280;27247;48.020;16.720;2024-01-15T08:35:25;98490.25;;;1.63;68.67
41515;BME280;27247;48.020;16.720;2024-01-15T08:39:36;98497.13;;;1.99;68.10
41515;BME280;27247;48.020;16.720;2024-01-15T08:43:48;98477.25;;;2.31;67.59
41515;BME280;27247;48.020;16.720;2024-01-15T08:47:59;98479.03;;;2.64;65.42
41515;BME280;27247;48.020;16.720;2024-01-15T08:52:09;98469.41;;;2.89;64.81
41515;BME280;27247;48.020;16.720;2024-01-15T08:56:20;98466.16;;;3.11;63.74
41515;BME280;27247;48.020;16.720;2024-01-15T09:00:30;98442.28;;;3.21;64.05
41515;BME280;27247;48.020;16.720;2024-01-15T09:04:41;98458.78;;;3.39;63.04
41515;BME280;27247;48.020;16.720;2024-01-15T09:08:51;98470.19;;;3.56;62.85
41515;BME280;27247;48.020;16.720;2024-01-15T09:13:01;98460.28;;;3.58;62.21
41515;BME280;27247;48.020;16.720;2024-01-15T09:17:14;98475.97;;;3.76;62.69
41515;BME280;27247;48.020;16.720;2024-01-15T09:21:24;98462.59;;;3.77;62.79
41515;BME280;27247;48.020;16.720;2024-01-15T09:25:34;98468.69;;;3.78;62.08
41515;BME280;27247;48.020;16.720;2024-01-15T09:29:44;98460.78;;;3.78;62.03
41515;BME280;27247;48.020;16.720;2024-01-15T09:33:56;98472.00;;;3.80;62.17
41515;BME280;27247;48.020;16.720;2024-01-15T09:38:07;98474.97;;;3.77;62.50
41515;BME280;27247;48.020;16.720;2024-01-15T09:42:18;98484.88;;;3.67;62.72
41515;BME280;27247;48.020;16.720;2024-01-15T09:46:33;98479.94;;;3.56;63.29
41515;BME280;27247;48.020;16.720;2024-01-15T09:50:43;98473.97;;;3.53;63.81
41515;BME280;27247;48.020;16.720;2024-01-15T09:54:54;98471.00;;;3.57;63.90
41515;BME280;27247;48.020;16.720;2024-01-15T09:59:05;98457.31;;;3.77;63.33
41515;BME280;27247;48.020;16.720;2024-01-15T10:03:15;98455.97;;;3.90;63.15
41515;BME280;27247;48.020;16.720;2024-01-15T10:07:26;98458.59;;;3.98;62.00
41515;BME280;27247;48.020;16.720;2024-01-15T10:11:39;98461.22;;;4.22;61.78
41515;BME280;27247;48.020;16.720;2024-01-15T10:15:49;98453.56;;;4.43;61.86
41515;BME280;27247;48.020;16.720;2024-01-15T10:20:00;98443.03;;;4.66;61.46
41515;BME280;27247;48.020;16.720;2024-01-15T10:24:11;98439.28;;;4.61;61.45
41515;BME280;27247;48.020;16.720;2024-01-15T10:28:22;98447.47;;;4.74;61.04
41515;BME280;27247;48.020;16.720;2024-01-15T10:32:32;98446.81;;;4.72;60.94
41515;BME280;27247;48.020;16.720;2024-01-15T10:36:45;98448.25;;;4.82;61.18
41515;BME280;27247;48.020;16.720;2024-01-15T10:40:57;98452.41;;;4.77;60.95
41515;BME280;27247;48.020;16.720;2024-01-15T10:45:08;98449.78;;;5.08;61.89
41515;BME280;27247;48.020;16.720;2024-01-15T10:49:19;98449.44;;;4.80;60.61
41515;BME280;27247;48.020;16.720;2024-01-15T10:53:31;98427.13;;;5.05;61.77
41515;BME280;27247;48.020;16.720;2024-01-15T10:57:44;98424.78;;;5.10;60.74
41515;BME280;27247;48.020;16.720;2024-01-15T11:01:55;98422.47;;;5.07;60.21
41515;BME280;27247;48.020;16.720;2024-01-15T11:06:16;98423.00;;;5.03;59.91
41515;BME280;27247;48.020;16.720;2024-01-15T11:14:51;98418.56;;;5.26;60.32
41515;BME280;27247;48.020;16.720;2024-01-15T11:19:05;98409.16;;;5.24;60.00
41515;BME280;27247;48.020;16.720;2024-01-15T11:23:42;98430.03;;;5.41;59.95
41515;BME280;27247;48.020;16.720;2024-01-15T11:27:54;98418.69;;;5.33;59.38
41515;BME280;27247;48.020;16.720;2024-01-15T11:32:06;98417.59;;;5.19;58.67
41515;BME280;27247;48.020;16.720;2024-01-15T11:36:17;98426.25;;;5.13;59.46
41515;BME280;27247;48.020;16.720;2024-01-15T11:44:44;98412.50;;;4.87;59.02
41515;BME280;27247;48.020;16.720;2024-01-15T11:49:03;98402.56;;;4.89;60.17
41515;BME280;27247;48.020;16.720;2024-01-15T11:57:40;98374.44;;;4.65;61.35
41515;BME280;27247;48.020;16.720;2024-01-15T12:01:53;98378.28;;;4.54;62.33
41515;BME280;27247;48.020;16.720;2024-01-15T12:06:07;98366.97;;;4.37;61.24
41515;BME280;27247;48.020;16.720;2024-01-15T12:10:19;98362.97;;;4.41;62.61
41515;BME280;27247;48.020;16.720;2024-01-15T12:14:30;98350.63;;;4.34;61.72
41515;BME280;27247;48.020;16.720;2024-01-15T12:18:40;98320.47;;;4.20;63.29
41515;BME280;27247;48.020;16.720;2024-01-15T12:22:51;98344.22;;;4.28;63.68
41515;BME280;27247;48.020;16.720;2024-01-15T12:27:01;98344.28;;;4.04;63.42
41515;BME280;27247;48.020;16.720;2024-01-15T12:31:12;98316.34;;;4.09;63.54
41515;BME280;27247;48.020;16.720;2024-01-15T12:35:24;98321.97;;;4.06;63.34
41515;BME280;27247;48.020;16.720;2024-01-15T12:39:36;98335.19;;;4.06;64.14
41515;BME280;27247;48.020;16.720;2024-01-15T12:43:46;98321.78;;;3.61;64.22
41515;BME280;27247;48.020;16.720;2024-01-15T12:47:57;98321.91;;;3.75;64.75
41515;BME280;27247;48.020;16.720;2024-01-15T12:52:09;98327.25;;;3.59;63.71
41515;BME280;27247;48.020;16.720;2024-01-15T12:56:19;98345.00;;;3.81;64.39
41515;BME280;27247;48.020;16.720;2024-01-15T13:00:30;98332.09;;;3.95;62.77
41515;BME280;27247;48.020;16.720;2024-01-15T13:04:40;98322.28;;;4.20;62.85
41515;BME280;27247;48.020;16.720;2024-01-15T13:08:50;98309.44;;;4.39;62.56
41515;BME280;27247;48.020;16.720;2024-01-15T13:13:01;98308.28;;;4.65;61.95
41515;BME280;27247;48.020;16.720;2024-01-15T13:17:11;98322.53;;;4.87;60.90
41515;BME280;27247;48.020;16.720;2024-01-15T13:21:22;98313.94;;;5.07;59.90
41515;BME280;27247;48.020;16.720;2024-01-15T13:25:32;98295.97;;;5.18;60.17
41515;BME280;27247;48.020;16.720;2024-01-15T13:29:46;98300.22;;;5.27;59.34
41515;BME280;27247;48.020;16.720;2024-01-15T13:33:56;98294.75;;;5.28;59.28
41515;BME280;27247;48.020;16.720;2024-01-15T13:38:06;98280.06;;;5.55;58.03
41515;BME280;27247;48.020;16.720;2024-01-15T13:42:17;98279.63;;;5.66;56.51
41515;BME280;27247;48.020;16.720;2024-01-15T13:46:28;98281.44;;;5.51;56.08
41515;BME280;27247;48.020;16.720;2024-01-15T13:50:39;98282.88;;;5.39;56.90
41515;BME280;27247;48.020;16.720;2024-01-15T13:54:49;98256.97;;;5.11;56.01
41515;BME280;27247;48.020;16.720;2024-01-15T13:59:00;98274.88;;;5.09;56.99
41515;BME280;27247;48.020;16.720;2024-01-15T14:03:10;98262.97;;;5.05;55.72
41515;BME280;27247;48.020;16.720;2024-01-15T14:07:20;98276.16;;;5.13;56.40
41515;BME280;27247;48.020;16.720;2024-01-15T14:11:31;98286.88;;;5.20;56.50
41515;BME280;27247;48.020;16.720;2024-01-15T14:15:41;98299.63;;;5.17;56.16
41515;BME280;27247;48.020;16.720;2024-01-15T14:19:52;98321.94;;;4.99;56.41
41515;BME280;27247;48.020;16.720;2024-01-15T14:24:02;98334.53;;;5.20;56.14
41515;BME280;27247;48.020;16.720;2024-01-15T14:28:13;98330.28;;;5.11;56.13
41515;BME280;27247;48.020;16.720;2024-01-15T14:32:24;98326.94;;;4.71;56.76
41515;BME280;27247;48.020;16.720;2024-01-15T14:36:34;98312.56;;;4.43;57.52
41515;BME280;27247;48.020;16.720;2024-01-15T14:40:44;98301.59;;;4.23;58.13
41515;BME280;27247;48.020;16.720;2024-01-15T14:44:55;98317.69;;;4.05;59.06
41515;BME280;27247;48.020;16.720;2024-01-15T14:49:06;98334.31;;;4.14;59.07
41515;BME280;27247;48.020;16.720;2024-01-15T14:53:16;98348.59;;;3.97;59.19
41515;BME280;27247;48.020;16.720;2024-01-15T14:57:27;98349.00;;;3.77;59.56
41515;BME280;27247;48.020;16.720;2024-01-15T15:01:37;98348.03;;;3.62;60.03
41515;BME280;27247;48.020;16.720;2024-01-15T15:05:48;98360.91;;;3.08;60.99
41515;BME280;27247;48.020;16.720;2024-01-15T15:09:59;98363.56;;;3.00;61.97
41515;BME280;27247;48.020;16.720;2024-01-15T15:14:09;98356.47;;;2.93;62.47
41515;BME280;27247;48.020;16.720;2024-01-15T15:18:21;98343.75;;;2.72;62.50
41515;BME280;27247;48.020;16.720;2024-01-15T15:22:34;98352.94;;;2.51;63.30
41515;BME280;27247;48.020;16.720;2024-01-15T15:26:44;98342.53;;;2.42;64.28
41515;BME280;27247;48.020;16.720;2024-01-15T15:30:55;98353.06;;;2.34;63.90
41515;BME280;27247;48.020;16.720;2024-01-15T15:35:07;98393.69;;;2.23;64.58
41515;BME280;27247;48.020;16.720;2024-01-15T15:39:17;98392.84;;;2.14;65.21
41515;BME280;27247;48.020;16.720;2024-01-15T15:43:29;98380.66;;;2.13;65.28
41515;BME280;27247;48.020;16.720;2024-01-15T15:47:39;98393.50;;;2.16;66.01
41515;BME280;27247;48.020;16.720;2024-01-15T15:51:50;98389.16;;;2.07;66.29
41515;BME280;27247;48.020;16.720;2024-01-15T15:56:00;98401.78;;;1.96;66.21
41515;BME280;27247;48.020;16.720;2024-01-15T16:00:11;98385.56;;;1.82;66.24
41515;BME280;27247;48.020;16.720;2024-01-15T16:04:22;98398.16;;;1.71;66.54
41515;BME280;27247;48.020;16.720;2024-01-15T16:08:32;98396.25;;;1.81;67.18
41515;BME280;27247;48.020;16.720;2024-01-15T16:12:42;98399.00;;;1.71;67.90
41515;BME280;27247;48.020;16.720;2024-01-15T16:16:52;98401.94;;;1.68;68.37
41515;BME280;27247;48.020;16.720;2024-01-15T16:21:07;98379.91;;;1.69;67.46
41515;BME280;27247;48.020;16.720;2024-01-15T16:25:17;98376.78;;;1.74;67.69
41515;BME280;27247;48.020;16.720;2024-01-15T16:29:28;98385.06;;;1.79;67.41
41515;BME280;27247;48.020;16.720;2024-01-15T16:33:38;98392.13;;;1.78;67.91
41515;BME280;27247;48.020;16.720;2024-01-15T16:37:48;98410.88;;;1.75;67.35
41515;BME280;27247;48.020;16.720;2024-01-15T16:41:59;98400.50;;;1.74;67.09
41515;BME280;27247;48.020;16.720;2024-01-15T16:46:09;98411.53;;;1.77;66.69
41515;BME280;27247;48.020;16.720;2024-01-15T16:50:20;98408.06;;;1.77;66.61
41515;BME280;27247;48.020;16.720;2024-01-15T16:54:34;98397.50;;;1.69;66.04
41515;BME280;27247;48.020;16.720;2024-01-15T16:58:45;98402.75;;;1.69;66.05
41515;BME280;27247;48.020;16.720;2024-01-15T17:02:55;98406.53;;;1.66;66.09
41515;BME280;27247;48.020;16.720;2024-01-15T17:07:06;98410.66;;;1.69;65.53
41515;BME280;27247;48.020;16.720;2024-01-15T17:11:16;98416.59;;;1.71;65.56
41515;BME280;27247;48.020;16.720;2024-01-15T17:15:26;98429.19;;;1.59;65.75
41515;BME280;27247;48.020;16.720;2024-01-15T17:19:37;98434.44;;;1.59;65.68
41515;BME280;27247;48.020;16.720;2024-01-15T17:23:47;98432.44;;;1.53;66.26
41515;BME280;27247;48.020;16.720;2024-01-15T17:27:57;98438.53;;;1.53;66.72
41515;BME280;27247;48.020;16.720;2024-01-15T17:32:08;98440.25;;;1.45;66.85
41515;BME280;27247;48.020;16.720;2024-01-15T17:36:18;98451.25;;;1.40;67.73
41515;BME280;27247;48.020;16.720;2024-01-15T17:40:28;98454.63;;;1.33;67.82
41515;BME280;27247;48.020;16.720;2024-01-15T17:44:39;98456.66;;;1.21;68.17
41515;BME280;27247;48.020;16.720;2024-01-15T17:48:49;98461.19;;;1.11;68.87
41515;BME280;27247;48.020;16.720;2024-01-15T17:53:00;98461.63;;;1.06;69.33
41515;BME280;27247;48.020;16.720;2024-01-15T17:57:10;98453.63;;;0.98;69.65
41515;BME280;27247;48.020;16.720;2024-01-15T18:01:20;98456.84;;;0.92;69.65
41515;BME280;27247;48.020;16.720;2024-01-15T18:05:31;98467.13;;;0.85;69.87
41515;BME280;27247;48.020;16.720;2024-01-15T18:09:41;98458.72;;;0.82;69.58
41515;BME280;27247;48.020;16.720;2024-01-15T18:13:52;98462.22;;;0.73;69.32
41515;BME280;27247;48.020;16.720;2024-01-15T18:18:02;98455.84;;;0.75;69.77
41515;BME280;27247;48.020;16.720;2024-01-15T18:22:13;98470.31;;;0.61;70.20
41515;BME280;27247;48.020;16.720;2024-01-15T18:26:25;98472.41;;;0.58;70.37
41515;BME280;27247;48.020;16.720;2024-01-15T18:30:35;98470.56;;;0.68;70.73
41515;BME280;27247;48.020;16.720;2024-01-15T18:34:46;98484.25;;;0.72;70.97
41515;BME280;27247;48.020;16.720;2024-01-15T18:38:56;98505.41;;;0.70;71.21
41515;BME280;27247;48.020;16.720;2024-01-15T18:43:08;98522.00;;;0.71;71.67
41515;BME280;27247;48.020;16.720;2024-01-15T18:47:19;98528.25;;;0.70;71.71
41515;BME280;27247;48.020;16.720;2024-01-15T18:51:29;98539.78;;;0.59;72.20
41515;BME280;27247;48.020;16.720;2024-01-15T18:55:40;98537.75;;;0.43;72.52
41515;BME280;27247;48.020;16.720;2024-01-15T18:59:50;98530.97;;;0.50;72.64
41515;BME280;27247;48.020;16.720;2024-01-15T19:04:01;98543.38;;;0.58;72.70
41515;BME280;27247;48.020;16.720;2024-01-15T19:08:11;98522.41;;;0.76;73.15
41515;BME280;27247;48.020;16.720;2024-01-15T19:12:21;98527.16;;;0.90;74.67
41515;BME280;27247;48.020;16.720;2024-01-15T19:16:32;98529.34;;;0.94;76.53
41515;BME280;27247;48.020;16.720;2024-01-15T19:20:42;98530.44;;;1.02;77.09
41515;BME280;27247;48.020;16.720;2024-01-15T19:24:53;98526.88;;;0.93;77.99
41515;BME280;27247;48.020;16.720;2024-01-15T19:29:03;98529.13;;;0.88;78.39
41515;BME280;27247;48.020;16.720;2024-01-15T19:33:13;98518.91;;;0.85;79.15
41515;BME280;27247;48.020;16.720;2024-01-15T19:42:30;98522.16;;;0.69;79.84
41515;BME280;27247;48.020;16.720;2024-01-15T19:46:41;98520.84;;;0.83;79.78
41515;BME280;27247;48.020;16.720;2024-01-15T19:50:51;98521.03;;;0.72;80.30
41515;BME280;27247;48.020;16.720;2024-01-15T19:55:03;98517.59;;;0.71;81.31
41515;BME280;27247;48.020;16.720;2024-01-15T19:59:14;98516.84;;;0.79;81.67
41515;BME280;27247;48.020;16.720;2024-01-15T20:03:24;98524.16;;;0.85;81.36
41515;BME280;27247;48.020;16.720;2024-01-15T20:07:36;98514.91;;;0.81;81.67
41515;BME280;27247;48.020;16.720;2024-01-15T20:11:46;98513.72;;;0.93;81.83
41515;BME280;27247;48.020;16.720;2024-01-15T20:15:57;98538.06;;;0.95;81.69
41515;BME280;27247;48.020;16.720;2024-01-15T20:20:07;98532.00;;;0.94;82.13
41515;BME280;27247;48.020;16.720;2024-01-15T20:24:20;98520.16;;;1.08;80.63
41515;BME280;27247;48.020;16.720;2024-01-15T20:28:33;98518.16;;;1.20;80.81
41515;BME280;27247;48.020;16.720;2024-01-15T20:32:43;98520.63;;;1.21;82.02
41515;BME280;27247;48.020;16.720;2024-01-15T20:36:54;98531.75;;;1.15;82.67
41515;BME280;27247;48.020;16.720;2024-01-15T20:41:05;98530.28;;;1.03;83.70
41515;BME280;27247;48.020;16.720;2024-01-15T20:45:16;98536.56;;;0.92;84.88
41515;BME280;27247;48.020;16.720;2024-01-15T20:49:26;98535.34;;;0.87;85.89
41515;BME280;27247;48.020;16.720;2024-01-15T20:53:39;98526.09;;;0.83;85.98
41515;BME280;27247;48.020;16.720;2024-01-15T20:57:50;98541.88;;;0.83;85.52
41515;BME280;27247;48.020;16.720;2024-01-15T21:02:00;98545.19;;;0.85;84.86
41515;BME280;27247;48.020;16.720;2024-01-15T21:06:11;98562.09;;;0.82;83.79
41515;BME280;27247;48.020;16.720;2024-01-15T21:10:21;98557.06;;;0.89;82.57
41515;BME280;27247;48.020;16.720;2024-01-15T21:14:32;98566.31;;;0.93;80.24
41515;BME280;27247;48.020;16.720;2024-01-15T21:18:42;98563.22;;;1.07;78.43
41515;BME280;27247;48.020;16.720;2024-01-15T21:22:53;98566.41;;;1.11;77.43
41515;BME280;27247;48.020;16.720;2024-01-15T21:27:03;98564.97;;;1.16;76.36
41515;BME280;27247;48.020;16.720;2024-01-15T21:31:14;98576.56;;;1.23;75.25
41515;BME280;27247;48.020;16.720;2024-01-15T21:35:24;98580.56;;;1.27;74.52
41515;BME280;27247;48.020;16.720;2024-01-15T21:39:35;98586.66;;;1.28;74.27
41515;BME280;27247;48.020;16.720;2024-01-15T21:43:45;98606.56;;;1.31;74.18
41515;BME280;27247;48.020;16.720;2024-01-15T21:47:55;98618.22;;;1.28;73.92
41515;BME280;27247;48.020;16.720;2024-01-15T21:52:06;98619.63;;;1.22;74.35
41515;BME280;27247;48.020;16.720;2024-01-15T21:56:16;98640.00;;;1.20;74.43
41515;BME280;27247;48.020;16.720;2024-01-15T22:00:26;98629.47;;;1.20;73.94
41515;BME280;27247;48.020;16.720;2024-01-15T22:04:37;98649.03;;;1.18;74.13
41515;BME280;27247;48.020;16.720;2024-01-15T22:08:47;98646.25;;;1.19;74.06
41515;BME280;27247;48.020;16.720;2024-01-15T22:12:58;98654.97;;;1.20;73.78
41515;BME280;27247;48.020;16.720;2024-01-15T22:17:09;98665.91;;;1.15;74.41
41515;BME280;27247;48.020;16.720;2024-01-15T22:21:19;98677.56;;;1.13;74.55